sensor_id;sensor_type;location;lat;lon;timestamp;pressure;altitude;pressure_sealevel;temperature
71807;BMP280;59655;42.590;23.364;2023-01-28T00:00:56;90670.63;;;-0.90
71807;BMP280;59655;42.590;23.364;2023-01-28T00:03:21;90664.50;;;-1.04
71807;BMP280;59655;42.590;23.364;2023-01-28T00:05:47;90669.19;;;-0.97
71807;BMP280;59655;42.590;23.364;2023-01-28T00:08:12;90677.97;;;-1.00
71807;BMP280;59655;42.590;23.364;2023-01-28T00:10:39;90678.91;;;-1.26
71807;BMP280;59655;42.590;23.364;2023-01-28T00:13:05;90677.69;;;-1.47
71807;BMP280;59655;42.590;23.364;2023-01-28T00:15:31;90684.84;;;-1.14
71807;BMP280;59655;42.590;23.364;2023-01-28T00:17:56;90685.78;;;-0.94
71807;BMP280;59655;42.590;23.364;2023-01-28T00:20:21;90690.50;;;-1.10
71807;BMP280;59655;42.590;23.364;2023-01-28T00:22:47;90701.16;;;-1.19
71807;BMP280;59655;42.590;23.364;2023-01-28T00:25:13;90698.50;;;-1.47
71807;BMP280;59655;42.590;23.364;2023-01-28T00:27:39;90691.91;;;-1.37
71807;BMP280;59655;42.590;23.364;2023-01-28T00:30:05;90700.19;;;-1.16
71807;BMP280;59655;42.590;23.364;2023-01-28T00:32:31;90699.72;;;-1.26
71807;BMP280;59655;42.590;23.364;2023-01-28T00:34:56;90706.59;;;-1.17
71807;BMP280;59655;42.590;23.364;2023-01-28T00:37:22;90694.94;;;-1.44
71807;BMP280;59655;42.590;23.364;2023-01-28T00:39:48;90708.00;;;-1.16
71807;BMP280;59655;42.590;23.364;2023-01-28T00:42:13;90712.50;;;-1.11
71807;BMP280;59655;42.590;23.364;2023-01-28T00:44:40;90709.19;;;-1.17
71807;BMP280;59655;42.590;23.364;2023-01-28T00:47:05;90717.94;;;-1.09
71807;BMP280;59655;42.590;23.364;2023-01-28T00:49:30;90718.66;;;-1.20
71807;BMP280;59655;42.590;23.364;2023-01-28T00:51:56;90710.84;;;-1.20
71807;BMP280;59655;42.590;23.364;2023-01-28T00:54:21;90703.97;;;-1.34
71807;BMP280;59655;42.590;23.364;2023-01-28T00:56:47;90712.88;;;-1.58
71807;BMP280;59655;42.590;23.364;2023-01-28T00:59:12;90708.66;;;-1.44
71807;BMP280;59655;42.590;23.364;2023-01-28T01:01:38;90705.66;;;-1.25
71807;BMP280;59655;42.590;23.364;2023-01-28T01:04:03;90703.47;;;-1.44
71807;BMP280;59655;42.590;23.364;2023-01-28T01:06:35;90705.41;;;-1.27
71807;BMP280;59655;42.590;23.364;2023-01-28T01:09:02;90704.41;;;-1.35
71807;BMP280;59655;42.590;23.364;2023-01-28T01:11:28;90704.94;;;-1.14
71807;BMP280;59655;42.590;23.364;2023-01-28T01:13:55;90700.44;;;-1.20
71807;BMP280;59655;42.590;23.364;2023-01-28T01:16:22;90708.50;;;-1.12
71807;BMP280;59655;42.590;23.364;2023-01-28T01:18:50;90701.41;;;-1.00
71807;BMP280;59655;42.590;23.364;2023-01-28T01:21:18;90709.91;;;-1.05
71807;BMP280;59655;42.590;23.364;2023-01-28T01:23:44;90711.06;;;-0.95
71807;BMP280;59655;42.590;23.364;2023-01-28T01:26:10;90713.44;;;-0.86
71807;BMP280;59655;42.590;23.364;2023-01-28T01:28:36;90710.59;;;-0.88
71807;BMP280;59655;42.590;23.364;2023-01-28T01:31:07;90711.56;;;-1.08
71807;BMP280;59655;42.590;23.364;2023-01-28T01:33:34;90713.91;;;-1.27
71807;BMP280;59655;42.590;23.364;2023-01-28T01:35:59;90714.41;;;-1.11
71807;BMP280;59655;42.590;23.364;2023-01-28T01:38:26;90716.94;;;-1.40
71807;BMP280;59655;42.590;23.364;2023-01-28T01:40:51;90706.34;;;-1.25
71807;BMP280;59655;42.590;23.364;2023-01-28T01:43:19;90709.59;;;-1.35
71807;BMP280;59655;42.590;23.364;2023-01-28T01:45:49;90711.31;;;-1.15
71807;BMP280;59655;42.590;23.364;2023-01-28T01:48:22;90712.97;;;-1.35
71807;BMP280;59655;42.590;23.364;2023-01-28T01:50:58;90709.84;;;-1.45
71807;BMP280;59655;42.590;23.364;2023-01-28T01:53:27;90715.53;;;-1.41
71807;BMP280;59655;42.590;23.364;2023-01-28T01:55:57;90702.03;;;-1.50
71807;BMP280;59655;42.590;23.364;2023-01-28T01:58:27;90711.47;;;-1.53
71807;BMP280;59655;42.590;23.364;2023-01-28T02:00:53;90710.78;;;-1.42
71807;BMP280;59655;42.590;23.364;2023-01-28T02:03:27;90720.53;;;-1.14
71807;BMP280;59655;42.590;23.364;2023-01-28T02:05:53;90732.13;;;-1.15
71807;BMP280;59655;42.590;23.364;2023-01-28T02:08:19;90732.81;;;-1.32
71807;BMP280;59655;42.590;23.364;2023-01-28T02:10:53;90726.38;;;-1.48
71807;BMP280;59655;42.590;23.364;2023-01-28T02:13:28;90739.81;;;-1.61
71807;BMP280;59655;42.590;23.364;2023-01-28T02:15:59;90731.09;;;-1.52
71807;BMP280;59655;42.590;23.364;2023-01-28T02:18:26;90726.59;;;-1.57
71807;BMP280;59655;42.590;23.364;2023-01-28T02:26:56;90733.78;;;-1.89
71807;BMP280;59655;42.590;23.364;2023-01-28T02:29:57;90731.25;;;-1.84
71807;BMP280;59655;42.590;23.364;2023-01-28T02:32:50;90729.31;;;-1.94
71807;BMP280;59655;42.590;23.364;2023-01-28T02:35:42;90741.63;;;-1.84
71807;BMP280;59655;42.590;23.364;2023-01-28T02:38:36;90724.78;;;-2.00
71807;BMP280;59655;42.590;23.364;2023-01-28T02:41:33;90729.97;;;-2.05
71807;BMP280;59655;42.590;23.364;2023-01-28T02:44:02;90737.78;;;-2.00
71807;BMP280;59655;42.590;23.364;2023-01-28T02:46:35;90740.19;;;-1.90
71807;BMP280;59655;42.590;23.364;2023-01-28T02:59:05;90742.22;;;-2.11
71807;BMP280;59655;42.590;23.364;2023-01-28T03:01:23;90733.97;;;-2.10
71807;BMP280;59655;42.590;23.364;2023-01-28T03:04:03;90735.59;;;-2.18
71807;BMP280;59655;42.590;23.364;2023-01-28T03:06:48;90745.53;;;-2.11
71807;BMP280;59655;42.590;23.364;2023-01-28T03:09:16;90734.84;;;-2.19
71807;BMP280;59655;42.590;23.364;2023-01-28T03:12:12;90739.91;;;-1.98
71807;BMP280;59655;42.590;23.364;2023-01-28T03:15:20;90739.78;;;-1.83
71807;BMP280;59655;42.590;23.364;2023-01-28T03:18:24;90744.06;;;-1.69
71807;BMP280;59655;42.590;23.364;2023-01-28T03:21:31;90740.00;;;-1.81
71807;BMP280;59655;42.590;23.364;2023-01-28T03:24:23;90740.75;;;-1.69
71807;BMP280;59655;42.590;23.364;2023-01-28T03:27:23;90732.72;;;-1.66
71807;BMP280;59655;42.590;23.364;2023-01-28T03:30:14;90735.09;;;-1.57
71807;BMP280;59655;42.590;23.364;2023-01-28T03:33:04;90741.69;;;-1.67
71807;BMP280;59655;42.590;23.364;2023-01-28T03:35:50;90742.66;;;-1.70
71807;BMP280;59655;42.590;23.364;2023-01-28T03:38:36;90744.06;;;-1.69
71807;BMP280;59655;42.590;23.364;2023-01-28T03:41:09;90739.63;;;-1.46
71807;BMP280;59655;42.590;23.364;2023-01-28T03:43:35;90740.81;;;-1.52
71807;BMP280;59655;42.590;23.364;2023-01-28T03:46:02;90745.28;;;-1.47
71807;BMP280;59655;42.590;23.364;2023-01-28T03:48:31;90746.72;;;-1.52
71807;BMP280;59655;42.590;23.364;2023-01-28T03:50:59;90747.69;;;-1.38
71807;BMP280;59655;42.590;23.364;2023-01-28T03:53:25;90746.69;;;-1.63
71807;BMP280;59655;42.590;23.364;2023-01-28T03:55:55;90754.03;;;-1.56
71807;BMP280;59655;42.590;23.364;2023-01-28T03:58:28;90754.06;;;-1.39
71807;BMP280;59655;42.590;23.364;2023-01-28T04:01:13;90748.63;;;-1.35
71807;BMP280;59655;42.590;23.364;2023-01-28T04:03:42;90757.56;;;-1.53
71807;BMP280;59655;42.590;23.364;2023-01-28T04:06:08;90751.44;;;-1.50
71807;BMP280;59655;42.590;23.364;2023-01-28T04:08:34;90746.50;;;-1.37
71807;BMP280;59655;42.590;23.364;2023-01-28T04:11:01;90754.47;;;-1.63
71807;BMP280;59655;42.590;23.364;2023-01-28T04:13:43;90760.63;;;-1.61
71807;BMP280;59655;42.590;23.364;2023-01-28T04:16:12;90760.19;;;-1.48
71807;BMP280;59655;42.590;23.364;2023-01-28T04:18:42;90767.34;;;-1.26
71807;BMP280;59655;42.590;23.364;2023-01-28T04:21:08;90760.25;;;-1.31
71807;BMP280;59655;42.590;23.364;2023-01-28T04:23:34;90765.41;;;-1.37
71807;BMP280;59655;42.590;23.364;2023-01-28T04:26:01;90761.59;;;-1.58
71807;BMP280;59655;42.590;23.364;2023-01-28T04:28:29;90771.03;;;-1.55
71807;BMP280;59655;42.590;23.364;2023-01-28T04:30:56;90780.94;;;-1.59
71807;BMP280;59655;42.590;23.364;2023-01-28T04:33:22;90770.72;;;-1.80
71807;BMP280;59655;42.590;23.364;2023-01-28T04:35:47;90777.84;;;-1.69
71807;BMP280;59655;42.590;23.364;2023-01-28T04:38:14;90776.00;;;-1.57
71807;BMP280;59655;42.590;23.364;2023-01-28T04:40:41;90780.72;;;-1.61
71807;BMP280;59655;42.590;23.364;2023-01-28T04:43:07;90788.34;;;-2.01
71807;BMP280;59655;42.590;23.364;2023-01-28T04:45:33;90788.94;;;-1.68
71807;BMP280;59655;42.590;23.364;2023-01-28T04:48:02;90781.16;;;-1.63
71807;BMP280;59655;42.590;23.364;2023-01-28T04:50:27;90785.25;;;-1.50
71807;BMP280;59655;42.590;23.364;2023-01-28T04:52:54;90784.38;;;-1.30
71807;BMP280;59655;42.590;23.364;2023-01-28T04:55:19;90784.28;;;-1.47
71807;BMP280;59655;42.590;23.364;2023-01-28T04:57:46;90794.91;;;-1.62
71807;BMP280;59655;42.590;23.364;2023-01-28T05:00:15;90789.72;;;-1.51
71807;BMP280;59655;42.590;23.364;2023-01-28T05:02:41;90793.06;;;-1.45
71807;BMP280;59655;42.590;23.364;2023-01-28T05:05:08;90799.84;;;-1.70
71807;BMP280;59655;42.590;23.364;2023-01-28T05:07:36;90811.38;;;-1.77
71807;BMP280;59655;42.590;23.364;2023-01-28T05:10:03;90806.97;;;-1.53
71807;BMP280;59655;42.590;23.364;2023-01-28T05:12:30;90809.03;;;-1.69
71807;BMP280;59655;42.590;23.364;2023-01-28T05:14:57;90816.44;;;-1.50
71807;BMP280;59655;42.590;23.364;2023-01-28T05:17:25;90815.50;;;-1.47
71807;BMP280;59655;42.590;23.364;2023-01-28T05:19:50;90824.41;;;-1.65
71807;BMP280;59655;42.590;23.364;2023-01-28T05:22:17;90830.06;;;-1.67
71807;BMP280;59655;42.590;23.364;2023-01-28T05:24:44;90820.16;;;-1.63
71807;BMP280;59655;42.590;23.364;2023-01-28T05:27:10;90828.91;;;-1.66
71807;BMP280;59655;42.590;23.364;2023-01-28T05:29:36;90830.44;;;-1.91
71807;BMP280;59655;42.590;23.364;2023-01-28T05:32:01;90827.78;;;-1.97
71807;BMP280;59655;42.590;23.364;2023-01-28T05:34:26;90823.50;;;-2.00
71807;BMP280;59655;42.590;23.364;2023-01-28T05:36:52;90825.63;;;-2.04
71807;BMP280;59655;42.590;23.364;2023-01-28T05:39:17;90824.50;;;-1.97
71807;BMP280;59655;42.590;23.364;2023-01-28T05:41:43;90828.47;;;-2.02
71807;BMP280;59655;42.590;23.364;2023-01-28T05:44:08;90831.06;;;-2.02
71807;BMP280;59655;42.590;23.364;2023-01-28T05:46:35;90832.47;;;-2.06
71807;BMP280;59655;42.590;23.364;2023-01-28T05:49:06;90842.06;;;-2.18
71807;BMP280;59655;42.590;23.364;2023-01-28T05:51:41;90841.13;;;-2.15
71807;BMP280;59655;42.590;23.364;2023-01-28T05:54:14;90839.47;;;-2.18
71807;BMP280;59655;42.590;23.364;2023-01-28T05:56:43;90841.91;;;-2.03
71807;BMP280;59655;42.590;23.364;2023-01-28T05:59:13;90843.31;;;-2.08
71807;BMP280;59655;42.590;23.364;2023-01-28T06:01:39;90848.97;;;-2.09
71807;BMP280;59655;42.590;23.364;2023-01-28T06:04:05;90845.91;;;-2.08
71807;BMP280;59655;42.590;23.364;2023-01-28T06:06:35;90861.13;;;-1.89
71807;BMP280;59655;42.590;23.364;2023-01-28T06:09:05;90853.53;;;-1.99
71807;BMP280;59655;42.590;23.364;2023-01-28T06:11:36;90870.50;;;-2.03
71807;BMP280;59655;42.590;23.364;2023-01-28T06:14:03;90859.41;;;-2.04
71807;BMP280;59655;42.590;23.364;2023-01-28T06:16:30;90862.03;;;-1.98
71807;BMP280;59655;42.590;23.364;2023-01-28T06:18:59;90878.78;;;-2.05
71807;BMP280;59655;42.590;23.364;2023-01-28T06:21:25;90871.81;;;-1.87
71807;BMP280;59655;42.590;23.364;2023-01-28T06:23:55;90877.75;;;-1.81
71807;BMP280;59655;42.590;23.364;2023-01-28T06:26:41;90877.31;;;-1.74
71807;BMP280;59655;42.590;23.364;2023-01-28T06:29:10;90885.38;;;-1.72
71807;BMP280;59655;42.590;23.364;2023-01-28T06:31:42;90890.16;;;-1.53
71807;BMP280;59655;42.590;23.364;2023-01-28T06:34:13;90902.00;;;-1.52
71807;BMP280;59655;42.590;23.364;2023-01-28T06:36:40;90894.34;;;-1.67
71807;BMP280;59655;42.590;23.364;2023-01-28T06:39:07;90899.94;;;-1.43
71807;BMP280;59655;42.590;23.364;2023-01-28T06:41:36;90895.97;;;-1.32
71807;BMP280;59655;42.590;23.364;2023-01-28T06:44:01;90904.66;;;-1.35
71807;BMP280;59655;42.590;23.364;2023-01-28T06:46:28;90912.97;;;-1.37
71807;BMP280;59655;42.590;23.364;2023-01-28T06:48:55;90910.97;;;-1.53
71807;BMP280;59655;42.590;23.364;2023-01-28T06:51:26;90909.56;;;-1.54
71807;BMP280;59655;42.590;23.364;2023-01-28T06:53:59;90907.72;;;-1.43
71807;BMP280;59655;42.590;23.364;2023-01-28T06:56:34;90915.91;;;-1.61
71807;BMP280;59655;42.590;23.364;2023-01-28T06:58:59;90918.91;;;-1.68
71807;BMP280;59655;42.590;23.364;2023-01-28T07:01:28;90925.97;;;-1.74
71807;BMP280;59655;42.590;23.364;2023-01-28T07:03:55;90929.53;;;-1.78
71807;BMP280;59655;42.590;23.364;2023-01-28T07:06:24;90924.34;;;-1.72
71807;BMP280;59655;42.590;23.364;2023-01-28T07:08:49;90935.00;;;-1.70
71807;BMP280;59655;42.590;23.364;2023-01-28T07:11:15;90951.47;;;-1.79
71807;BMP280;59655;42.590;23.364;2023-01-28T07:13:41;90934.72;;;-2.04
71807;BMP280;59655;42.590;23.364;2023-01-28T07:16:09;90939.75;;;-1.94
71807;BMP280;59655;42.590;23.364;2023-01-28T07:18:39;90937.16;;;-1.94
71807;BMP280;59655;42.590;23.364;2023-01-28T07:21:05;90953.56;;;-1.83
71807;BMP280;59655;42.590;23.364;2023-01-28T07:23:31;90958.69;;;-1.62
71807;BMP280;59655;42.590;23.364;2023-01-28T07:26:04;90961.16;;;-1.42
71807;BMP280;59655;42.590;23.364;2023-01-28T07:28:30;90961.22;;;-1.73
71807;BMP280;59655;42.590;23.364;2023-01-28T07:30:55;90975.06;;;-1.82
71807;BMP280;59655;42.590;23.364;2023-01-28T07:33:21;90973.47;;;-2.06
71807;BMP280;59655;42.590;23.364;2023-01-28T07:35:47;90973.03;;;-1.99
71807;BMP280;59655;42.590;23.364;2023-01-28T07:38:13;90967.59;;;-2.01
71807;BMP280;59655;42.590;23.364;2023-01-28T07:40:39;90973.72;;;-2.04
71807;BMP280;59655;42.590;23.364;2023-01-28T07:43:14;90964.31;;;-1.96
71807;BMP280;59655;42.590;23.364;2023-01-28T07:45:45;90975.81;;;-1.76
71807;BMP280;59655;42.590;23.364;2023-01-28T07:48:16;90971.78;;;-1.83
71807;BMP280;59655;42.590;23.364;2023-01-28T07:50:43;90972.47;;;-1.82
71807;BMP280;59655;42.590;23.364;2023-01-28T07:53:10;90977.72;;;-1.77
71807;BMP280;59655;42.590;23.364;2023-01-28T07:55:37;90982.63;;;-1.52
71807;BMP280;59655;42.590;23.364;2023-01-28T07:58:06;90977.81;;;-1.28
71807;BMP280;59655;42.590;23.364;2023-01-28T08:00:34;90981.50;;;-1.40
71807;BMP280;59655;42.590;23.364;2023-01-28T08:03:12;90973.69;;;-1.40
71807;BMP280;59655;42.590;23.364;2023-01-28T08:05:43;90990.84;;;-1.22
71807;BMP280;59655;42.590;23.364;2023-01-28T08:08:11;90988.97;;;-1.16
71807;BMP280;59655;42.590;23.364;2023-01-28T08:10:37;90987.81;;;-1.15
71807;BMP280;59655;42.590;23.364;2023-01-28T08:13:03;90980.53;;;-1.00
71807;BMP280;59655;42.590;23.364;2023-01-28T08:15:29;90984.69;;;-1.25
71807;BMP280;59655;42.590;23.364;2023-01-28T08:17:56;90994.03;;;-1.01
71807;BMP280;59655;42.590;23.364;2023-01-28T08:20:23;90988.88;;;-0.90
71807;BMP280;59655;42.590;23.364;2023-01-28T08:22:49;90987.69;;;-0.89
71807;BMP280;59655;42.590;23.364;2023-01-28T08:25:14;90994.78;;;-0.89
71807;BMP280;59655;42.590;23.364;2023-01-28T08:27:40;90993.84;;;-0.86
71807;BMP280;59655;42.590;23.364;2023-01-28T08:30:06;91000.75;;;-0.77
71807;BMP280;59655;42.590;23.364;2023-01-28T08:32:33;90995.50;;;-0.89
71807;BMP280;59655;42.590;23.364;2023-01-28T08:34:58;90992.66;;;-0.85
71807;BMP280;59655;42.590;23.364;2023-01-28T08:37:24;91009.63;;;-1.01
71807;BMP280;59655;42.590;23.364;2023-01-28T08:39:49;91002.34;;;-0.91
71807;BMP280;59655;42.590;23.364;2023-01-28T08:42:15;90994.13;;;-0.79
71807;BMP280;59655;42.590;23.364;2023-01-28T08:44:41;91006.47;;;-0.68
71807;BMP280;59655;42.590;23.364;2023-01-28T08:47:06;91001.94;;;-0.79
71807;BMP280;59655;42.590;23.364;2023-01-28T08:49:32;91002.56;;;-0.95
71807;BMP280;59655;42.590;23.364;2023-01-28T08:51:57;91006.69;;;-0.77
71807;BMP280;59655;42.590;23.364;2023-01-28T08:54:22;91006.25;;;-0.64
71807;BMP280;59655;42.590;23.364;2023-01-28T08:56:48;91020.44;;;-0.65
71807;BMP280;59655;42.590;23.364;2023-01-28T08:59:14;91006.91;;;-0.81
71807;BMP280;59655;42.590;23.364;2023-01-28T09:01:39;91005.00;;;-0.80
71807;BMP280;59655;42.590;23.364;2023-01-28T09:04:05;91007.97;;;-0.50
71807;BMP280;59655;42.590;23.364;2023-01-28T09:06:31;91005.16;;;-0.41
71807;BMP280;59655;42.590;23.364;2023-01-28T09:08:58;91003.47;;;-0.44
71807;BMP280;59655;42.590;23.364;2023-01-28T09:11:24;91006.16;;;-0.27
71807;BMP280;59655;42.590;23.364;2023-01-28T09:13:50;91001.41;;;-0.28
71807;BMP280;59655;42.590;23.364;2023-01-28T09:16:15;91011.59;;;-0.25
71807;BMP280;59655;42.590;23.364;2023-01-28T09:18:41;91000.47;;;-0.31
71807;BMP280;59655;42.590;23.364;2023-01-28T09:21:07;91004.97;;;-0.26
71807;BMP280;59655;42.590;23.364;2023-01-28T09:23:36;91008.53;;;-0.17
71807;BMP280;59655;42.590;23.364;2023-01-28T09:26:03;91000.47;;;-0.20
71807;BMP280;59655;42.590;23.364;2023-01-28T09:28:29;91003.72;;;-0.36
71807;BMP280;59655;42.590;23.364;2023-01-28T09:31:03;91017.19;;;-0.43
71807;BMP280;59655;42.590;23.364;2023-01-28T09:33:29;91007.25;;;-0.45
71807;BMP280;59655;42.590;23.364;2023-01-28T09:35:54;91012.69;;;-0.54
71807;BMP280;59655;42.590;23.364;2023-01-28T09:38:20;91007.53;;;-0.31
71807;BMP280;59655;42.590;23.364;2023-01-28T09:40:45;91002.81;;;-0.22
71807;BMP280;59655;42.590;23.364;2023-01-28T09:45:45;91011.38;;;-0.04
71807;BMP280;59655;42.590;23.364;2023-01-28T09:48:19;91005.94;;;-0.06
71807;BMP280;59655;42.590;23.364;2023-01-28T09:50:48;91005.72;;;-0.03
71807;BMP280;59655;42.590;23.364;2023-01-28T09:53:18;91008.53;;;-0.06
71807;BMP280;59655;42.590;23.364;2023-01-28T09:55:54;91010.00;;;0.06
71807;BMP280;59655;42.590;23.364;2023-01-28T09:58:20;91010.00;;;0.06
71807;BMP280;59655;42.590;23.364;2023-01-28T10:12:13;90998.84;;;-0.06
71807;BMP280;59655;42.590;23.364;2023-01-28T10:17:31;90998.59;;;-0.02
71807;BMP280;59655;42.590;23.364;2023-01-28T10:20:02;90987.44;;;-0.08
71807;BMP280;59655;42.590;23.364;2023-01-28T10:22:43;90998.59;;;-0.02
71807;BMP280;59655;42.590;23.364;2023-01-28T10:25:17;90996.94;;;-0.11
71807;BMP280;59655;42.590;23.364;2023-01-28T10:27:44;90990.53;;;-0.10
71807;BMP280;59655;42.590;23.364;2023-01-28T10:30:21;90998.59;;;-0.08
71807;BMP280;59655;42.590;23.364;2023-01-28T10:35:38;90993.88;;;-0.04
71807;BMP280;59655;42.590;23.364;2023-01-28T10:38:05;91000.47;;;-0.31
71807;BMP280;59655;42.590;23.364;2023-01-28T10:40:32;91002.16;;;-0.11
71807;BMP280;59655;42.590;23.364;2023-01-28T10:42:59;90993.16;;;0.07
71807;BMP280;59655;42.590;23.364;2023-01-28T10:45:31;90995.25;;;-0.14
71807;BMP280;59655;42.590;23.364;2023-01-28T10:48:00;90996.00;;;-0.13
71807;BMP280;59655;42.590;23.364;2023-01-28T10:50:28;90987.19;;;-0.22
71807;BMP280;59655;42.590;23.364;2023-01-28T10:52:58;90991.03;;;-0.11
71807;BMP280;59655;42.590;23.364;2023-01-28T10:55:29;90993.13;;;-0.10
71807;BMP280;59655;42.590;23.364;2023-01-28T10:57:55;90994.31;;;-0.11
71807;BMP280;59655;42.590;23.364;2023-01-28T11:00:24;90984.16;;;0.03
71807;BMP280;59655;42.590;23.364;2023-01-28T11:02:50;90981.28;;;-0.16
71807;BMP280;59655;42.590;23.364;2023-01-28T11:05:22;91003.81;;;-0.08
71807;BMP280;59655;42.590;23.364;2023-01-28T11:07:50;90999.78;;;-0.03
71807;BMP280;59655;42.590;23.364;2023-01-28T11:10:29;90994.13;;;0.04
71807;BMP280;59655;42.590;23.364;2023-01-28T11:12:57;90986.97;;;-0.18
71807;BMP280;59655;42.590;23.364;2023-01-28T11:15:24;90982.72;;;0.02
71807;BMP280;59655;42.590;23.364;2023-01-28T11:18:01;90985.56;;;-0.02
71807;BMP280;59655;42.590;23.364;2023-01-28T11:20:36;90990.78;;;-0.08
71807;BMP280;59655;42.590;23.364;2023-01-28T11:23:03;90996.94;;;0.01
71807;BMP280;59655;42.590;23.364;2023-01-28T11:25:36;90990.78;;;0.15
71807;BMP280;59655;42.590;23.364;2023-01-28T11:28:13;90997.19;;;0.03
71807;BMP280;59655;42.590;23.364;2023-01-28T11:30:40;90988.41;;;0.11
71807;BMP280;59655;42.590;23.364;2023-01-28T11:33:52;90988.19;;;0.21
71807;BMP280;59655;42.590;23.364;2023-01-28T11:36:24;90994.34;;;0.01
71807;BMP280;59655;42.590;23.364;2023-01-28T11:39:02;90990.53;;;0.02
71807;BMP280;59655;42.590;23.364;2023-01-28T11:41:34;90989.13;;;0.01
71807;BMP280;59655;42.590;23.364;2023-01-28T11:44:15;90991.50;;;0.21
71807;BMP280;59655;42.590;23.364;2023-01-28T11:49:44;90984.84;;;-0.03
71807;BMP280;59655;42.590;23.364;2023-01-28T11:57:22;91003.13;;;0.20
71807;BMP280;59655;42.590;23.364;2023-01-28T12:00:24;90984.63;;;0.24
71807;BMP280;59655;42.590;23.364;2023-01-28T12:05:49;90988.41;;;0.17
71807;BMP280;59655;42.590;23.364;2023-01-28T12:08:28;90984.63;;;0.24
71807;BMP280;59655;42.590;23.364;2023-01-28T12:25:01;90988.19;;;0.15
71807;BMP280;59655;42.590;23.364;2023-01-28T12:30:47;90994.13;;;0.04
71807;BMP280;59655;42.590;23.364;2023-01-28T12:41:46;91006.69;;;0.00
71807;BMP280;59655;42.590;23.364;2023-01-28T12:44:21;90998.13;;;0.05
71807;BMP280;59655;42.590;23.364;2023-01-28T12:46:52;91004.75;;;-0.11
71807;BMP280;59655;42.590;23.364;2023-01-28T12:52:07;91009.03;;;0.15
71807;BMP280;59655;42.590;23.364;2023-01-28T12:54:49;91011.44;;;0.30
71807;BMP280;59655;42.590;23.364;2023-01-28T12:57:23;91015.69;;;0.05
71807;BMP280;59655;42.590;23.364;2023-01-28T13:02:37;91011.16;;;0.05
71807;BMP280;59655;42.590;23.364;2023-01-28T13:05:13;91025.41;;;0.04
71807;BMP280;59655;42.590;23.364;2023-01-28T13:08:00;91030.38;;;0.30
71807;BMP280;59655;42.590;23.364;2023-01-28T13:10:42;91025.16;;;0.36
71807;BMP280;59655;42.590;23.364;2023-01-28T13:15:48;91026.59;;;0.31
71807;BMP280;59655;42.590;23.364;2023-01-28T13:18:48;91033.97;;;0.27
71807;BMP280;59655;42.590;23.364;2023-01-28T13:21:34;91035.13;;;0.43
71807;BMP280;59655;42.590;23.364;2023-01-28T13:29:18;91037.25;;;0.50
71807;BMP280;59655;42.590;23.364;2023-01-28T13:31:47;91039.63;;;0.37
71807;BMP280;59655;42.590;23.364;2023-01-28T13:34:27;91051.00;;;0.23
71807;BMP280;59655;42.590;23.364;2023-01-28T13:36:55;91051.00;;;0.23
71807;BMP280;59655;42.590;23.364;2023-01-28T13:39:24;91051.47;;;0.49
71807;BMP280;59655;42.590;23.364;2023-01-28T13:42:06;91042.94;;;0.60
71807;BMP280;59655;42.590;23.364;2023-01-28T13:44:33;91048.19;;;0.32
71807;BMP280;59655;42.590;23.364;2023-01-28T13:54:50;91074.47;;;0.39
71807;BMP280;59655;42.590;23.364;2023-01-28T14:00:10;91064.50;;;0.21
71807;BMP280;59655;42.590;23.364;2023-01-28T14:19:31;91087.97;;;0.04
71807;BMP280;59655;42.590;23.364;2023-01-28T14:21:58;91096.19;;;-0.20
71807;BMP280;59655;42.590;23.364;2023-01-28T14:24:24;91096.88;;;-0.25
71807;BMP280;59655;42.590;23.364;2023-01-28T14:29:45;91098.41;;;0.04
71807;BMP280;59655;42.590;23.364;2023-01-28T14:32:17;91104.25;;;-0.12
71807;BMP280;59655;42.590;23.364;2023-01-28T14:34:44;91102.59;;;-0.15
71807;BMP280;59655;42.590;23.364;2023-01-28T14:37:13;91098.78;;;-0.20
71807;BMP280;59655;42.590;23.364;2023-01-28T14:39:43;91097.16;;;-0.06
71807;BMP280;59655;42.590;23.364;2023-01-28T14:42:20;91098.88;;;0.03
71807;BMP280;59655;42.590;23.364;2023-01-28T14:45:41;91103.53;;;-0.18
71807;BMP280;59655;42.590;23.364;2023-01-28T14:52:57;91116.41;;;-0.47
71807;BMP280;59655;42.590;23.364;2023-01-28T14:58:16;91125.50;;;-0.74
71807;BMP280;59655;42.590;23.364;2023-01-28T15:00:52;91127.66;;;-0.72
71807;BMP280;59655;42.590;23.364;2023-01-28T15:03:18;91127.56;;;-0.84
71807;BMP280;59655;42.590;23.364;2023-01-28T15:05:44;91123.91;;;-0.60
71807;BMP280;59655;42.590;23.364;2023-01-28T15:08:19;91126.53;;;-0.60
71807;BMP280;59655;42.590;23.364;2023-01-28T15:10:46;91132.44;;;-0.65
71807;BMP280;59655;42.590;23.364;2023-01-28T15:13:23;91141.94;;;-0.94
71807;BMP280;59655;42.590;23.364;2023-01-28T15:15:50;91132.16;;;-0.73
71807;BMP280;59655;42.590;23.364;2023-01-28T15:18:17;91145.03;;;-0.52
71807;BMP280;59655;42.590;23.364;2023-01-28T15:20:46;91143.09;;;-0.63
71807;BMP280;59655;42.590;23.364;2023-01-28T15:23:17;91148.41;;;-0.46
71807;BMP280;59655;42.590;23.364;2023-01-28T15:25:43;91146.31;;;-0.36
71807;BMP280;59655;42.590;23.364;2023-01-28T15:28:19;91150.72;;;-0.54
71807;BMP280;59655;42.590;23.364;2023-01-28T15:30:46;91150.25;;;-0.90
71807;BMP280;59655;42.590;23.364;2023-01-28T15:33:14;91138.56;;;-0.68
71807;BMP280;59655;42.590;23.364;2023-01-28T15:36:08;91141.97;;;-0.51
71807;BMP280;59655;42.590;23.364;2023-01-28T15:38:34;91140.81;;;-0.50
71807;BMP280;59655;42.590;23.364;2023-01-28T15:41:00;91155.78;;;-0.33
71807;BMP280;59655;42.590;23.364;2023-01-28T15:43:35;91153.38;;;-0.43
71807;BMP280;59655;42.590;23.364;2023-01-28T15:46:03;91149.78;;;-0.51
71807;BMP280;59655;42.590;23.364;2023-01-28T15:48:34;91149.78;;;-0.51
71807;BMP280;59655;42.590;23.364;2023-01-28T15:51:05;91152.94;;;-0.35
71807;BMP280;59655;42.590;23.364;2023-01-28T15:53:46;91162.00;;;-0.25
71807;BMP280;59655;42.590;23.364;2023-01-28T15:56:14;91167.75;;;-0.53
71807;BMP280;59655;42.590;23.364;2023-01-28T15:58:40;91168.69;;;-0.62
71807;BMP280;59655;42.590;23.364;2023-01-28T16:03:36;91176.56;;;-0.82
71807;BMP280;59655;42.590;23.364;2023-01-28T16:06:20;91180.72;;;-0.64
71807;BMP280;59655;42.590;23.364;2023-01-28T16:08:57;91189.06;;;-0.92
71807;BMP280;59655;42.590;23.364;2023-01-28T16:11:34;91188.75;;;-0.68
71807;BMP280;59655;42.590;23.364;2023-01-28T16:14:03;91181.56;;;-0.79
71807;BMP280;59655;42.590;23.364;2023-01-28T16:18:54;91181.78;;;-0.82
71807;BMP280;59655;42.590;23.364;2023-01-28T16:21:43;91192.88;;;-0.87
71807;BMP280;59655;42.590;23.364;2023-01-28T16:24:24;91193.94;;;-0.68
71807;BMP280;59655;42.590;23.364;2023-01-28T16:27:04;91197.28;;;-0.67